createdAt,value
2018-06-08T00:01:04.050Z,3.00
2018-06-08T00:03:16.478Z,3.40
2018-06-08T00:05:28.887Z,3.73
2018-06-08T00:07:41.276Z,3.50
2018-06-08T00:09:53.677Z,3.57
2018-06-08T00:12:06.079Z,4.03
2018-06-08T00:14:19.370Z,4.63
2018-06-08T00:16:32.073Z,4.67
2018-06-08T00:18:44.487Z,4.13
2018-06-08T00:20:56.851Z,4.90
2018-06-08T00:23:09.209Z,4.97
2018-06-08T00:25:21.679Z,4.97
2018-06-08T00:27:34.055Z,5.03
2018-06-08T00:29:46.406Z,4.90
2018-06-08T00:31:58.757Z,5.43
2018-06-08T00:34:11.215Z,4.77
2018-06-08T00:36:23.624Z,5.17
2018-06-08T00:38:37.174Z,5.27
2018-06-08T00:40:49.632Z,5.80
2018-06-08T00:43:02.325Z,6.50
2018-06-08T00:45:14.673Z,6.53
2018-06-08T00:47:28.086Z,5.17
2018-06-08T00:49:40.539Z,5.90
2018-06-08T00:51:53.866Z,5.33
2018-06-08T00:54:06.620Z,6.97
2018-06-08T00:57:22.242Z,7.80
2018-06-08T00:59:34.722Z,7.83
2018-06-08T01:01:47.123Z,6.57
2018-06-08T01:03:59.778Z,6.43
2018-06-08T01:06:13.461Z,6.87
2018-06-08T01:08:26.407Z,6.60
2018-06-08T01:10:38.859Z,6.57
2018-06-08T01:12:51.439Z,8.73
2018-06-08T01:15:04.062Z,6.30
2018-06-08T01:17:17.251Z,6.70
2018-06-08T01:19:32.111Z,6.77
2018-06-08T01:21:44.558Z,6.00
2018-06-08T01:23:57.735Z,6.93
2018-06-08T01:26:10.091Z,7.10
2018-06-08T01:28:23.488Z,6.80
2018-06-08T01:30:36.661Z,7.23
2018-06-08T01:32:52.174Z,7.30
2018-06-08T01:35:05.369Z,6.93
2018-06-08T01:37:17.874Z,5.97
2018-06-08T01:39:30.255Z,4.50
2018-06-08T01:41:42.751Z,3.77
2018-06-08T01:43:55.180Z,4.37
2018-06-08T01:46:07.514Z,3.87
2018-06-08T01:48:19.946Z,3.50
2018-06-08T01:50:35.914Z,3.97
2018-06-08T01:52:48.362Z,5.03
2018-06-08T01:55:00.766Z,4.10
2018-06-08T01:57:13.147Z,5.00
2018-06-08T01:59:26.257Z,3.70
2018-06-08T02:01:38.618Z,4.43
2018-06-08T02:03:51.592Z,4.20
2018-06-08T02:06:04.156Z,3.97
2018-06-08T02:08:16.626Z,3.73
2018-06-08T02:10:29.099Z,4.10
2018-06-08T02:12:41.466Z,4.13
2018-06-08T02:14:53.818Z,4.37
2018-06-08T02:17:06.278Z,5.07
2018-06-08T02:19:20.937Z,5.73
2018-06-08T02:21:33.363Z,4.30
2018-06-08T02:23:46.283Z,5.17
2018-06-08T02:25:58.892Z,5.60
2018-06-08T02:28:12.599Z,5.70
2018-06-08T02:30:24.994Z,5.27
2018-06-08T02:32:37.537Z,4.80
2018-06-08T02:34:50.025Z,5.40
2018-06-08T02:37:02.505Z,5.27
2018-06-08T02:39:15.211Z,5.80
2018-06-08T02:41:27.841Z,5.87
2018-06-08T02:43:40.306Z,5.33
2018-06-08T02:45:53.380Z,5.70
2018-06-08T02:48:05.971Z,4.20
2018-06-08T02:50:18.497Z,5.10
2018-06-08T02:52:30.891Z,4.27
2018-06-08T02:54:43.283Z,5.70
2018-06-08T02:56:55.722Z,5.50
2018-06-08T02:59:08.135Z,4.73
2018-06-08T03:01:20.562Z,4.50
2018-06-08T03:03:33.049Z,5.47
2018-06-08T03:05:45.502Z,5.33
2018-06-08T03:07:57.894Z,4.60
2018-06-08T03:10:10.248Z,4.00
2018-06-08T03:12:22.679Z,3.97
2018-06-08T03:14:35.316Z,3.63
2018-06-08T03:16:47.875Z,4.10
2018-06-08T03:19:03.658Z,3.97
2018-06-08T03:21:16.215Z,3.77
2018-06-08T03:23:28.651Z,3.17
2018-06-08T03:25:41.031Z,4.30
2018-06-08T03:27:53.472Z,4.60
2018-06-08T03:30:05.991Z,3.77
2018-06-08T03:32:18.536Z,3.70
2018-06-08T03:34:32.547Z,4.20
2018-06-08T03:36:45.529Z,4.53
2018-06-08T03:38:58.625Z,3.70
2018-06-08T03:41:11.061Z,3.50
2018-06-08T03:43:23.548Z,3.93
2018-06-08T03:45:36.000Z,4.73
2018-06-08T03:47:48.692Z,4.97
2018-06-08T03:50:01.080Z,4.87
2018-06-08T03:52:13.410Z,4.53
2018-06-08T03:54:25.799Z,5.60
2018-06-08T03:56:38.227Z,5.30
2018-06-08T03:58:50.682Z,4.70
2018-06-08T04:01:03.189Z,4.80
2018-06-08T04:03:15.518Z,5.50
2018-06-08T04:05:28.102Z,4.93
2018-06-08T04:07:40.467Z,5.20
2018-06-08T04:09:53.015Z,5.20
2018-06-08T04:12:05.905Z,5.13
2018-06-08T04:14:18.264Z,4.50
2018-06-08T04:16:30.653Z,3.83
2018-06-08T04:18:43.055Z,4.60
2018-06-08T04:20:55.492Z,5.07
2018-06-08T04:23:08.094Z,4.80
2018-06-08T04:25:20.564Z,4.97
2018-06-08T04:27:32.923Z,5.73
2018-06-08T04:29:45.310Z,5.53
2018-06-08T04:31:57.734Z,3.93
2018-06-08T04:34:10.077Z,4.53
2018-06-08T04:36:22.606Z,4.90
2018-06-08T04:38:34.977Z,4.63
2018-06-08T04:40:47.306Z,4.97
2018-06-08T04:42:59.688Z,4.27
2018-06-08T04:45:12.113Z,3.60
2018-06-08T04:47:24.475Z,5.30
2018-06-08T04:49:36.822Z,5.23
2018-06-08T04:51:49.201Z,4.97
2018-06-08T04:54:01.586Z,6.10
2018-06-08T04:56:13.999Z,5.67
2018-06-08T04:58:26.449Z,6.17
2018-06-08T05:00:38.887Z,5.93
2018-06-08T05:02:51.267Z,5.00
2018-06-08T05:05:03.625Z,6.30
2018-06-08T05:07:16.017Z,6.40
2018-06-08T05:09:28.378Z,6.23
2018-06-08T05:11:40.759Z,6.40
2018-06-08T05:13:53.157Z,5.60
2018-06-08T05:16:05.585Z,5.77
2018-06-08T05:18:18.096Z,6.40
2018-06-08T05:20:30.514Z,6.43
2018-06-08T05:22:42.904Z,6.60
2018-06-08T05:24:55.412Z,5.30
2018-06-08T05:27:07.877Z,6.33
2018-06-08T05:29:20.543Z,7.10
2018-06-08T05:31:32.927Z,5.47
2018-06-08T05:33:45.307Z,5.80
2018-06-08T05:35:57.662Z,7.07
2018-06-08T05:38:10.007Z,9.47
2018-06-08T05:40:22.398Z,8.17
2018-06-08T05:42:34.947Z,8.13
2018-06-08T05:44:47.427Z,7.00
2018-06-08T05:46:59.756Z,7.67
2018-06-08T05:49:12.168Z,7.47
2018-06-08T05:51:24.543Z,7.67
2018-06-08T05:53:37.032Z,8.17
2018-06-08T05:55:49.563Z,8.13
2018-06-08T05:58:02.100Z,8.80
2018-06-08T06:00:14.499Z,9.23
2018-06-08T06:02:27.708Z,9.03
2018-06-08T06:04:40.132Z,8.20
2018-06-08T06:06:52.633Z,7.10
2018-06-08T06:09:07.367Z,7.67
2018-06-08T06:11:19.773Z,8.30
2018-06-08T06:13:32.181Z,7.77
2018-06-08T06:15:44.582Z,7.57
2018-06-08T06:17:56.893Z,7.63
2018-06-08T06:20:09.309Z,7.03
2018-06-08T06:22:21.802Z,8.23
2018-06-08T06:24:34.211Z,8.20
2018-06-08T06:26:46.539Z,8.50
2018-06-08T06:28:58.936Z,7.60
2018-06-08T06:31:11.342Z,7.67
2018-06-08T06:33:23.730Z,8.00
2018-06-08T06:35:36.148Z,8.23
2018-06-08T06:37:48.518Z,9.03
2018-06-08T06:40:00.885Z,8.83
2018-06-08T06:42:13.330Z,8.30
2018-06-08T06:44:25.716Z,8.13
2018-06-08T06:46:38.124Z,7.93
2018-06-08T06:48:50.555Z,7.23
2018-06-08T06:51:02.942Z,8.47
2018-06-08T06:53:15.458Z,10.13
2018-06-08T06:55:27.814Z,9.60
2018-06-08T06:57:40.183Z,8.27
2018-06-08T06:59:52.600Z,8.03
2018-06-08T07:02:05.110Z,9.27
2018-06-08T07:04:17.526Z,8.53
2018-06-08T07:06:29.910Z,8.50
2018-06-08T07:08:42.375Z,8.67
2018-06-08T07:10:54.724Z,8.43
2018-06-08T07:13:07.173Z,8.67
2018-06-08T07:15:19.490Z,8.27
2018-06-08T07:17:31.886Z,7.93
2018-06-08T07:19:44.249Z,8.63
2018-06-08T07:21:56.898Z,7.87
2018-06-08T07:24:09.562Z,7.33
2018-06-08T07:26:21.951Z,10.07
2018-06-08T07:28:34.281Z,8.53
2018-06-08T07:30:46.719Z,9.37
2018-06-08T07:32:59.133Z,9.40
2018-06-08T07:35:11.655Z,9.27
2018-06-08T07:37:24.067Z,7.97
2018-06-08T07:39:36.489Z,9.33
2018-06-08T07:41:48.790Z,8.33
2018-06-08T07:44:01.321Z,9.57
2018-06-08T07:46:13.725Z,9.67
2018-06-08T07:48:26.108Z,10.60
2018-06-08T07:50:38.510Z,10.37
2018-06-08T07:52:50.895Z,10.97
2018-06-08T07:55:03.406Z,11.00
2018-06-08T07:57:15.852Z,11.37
2018-06-08T07:59:28.191Z,9.47
2018-06-08T08:01:40.609Z,9.27
2018-06-08T08:03:53.082Z,11.23
2018-06-08T08:06:05.527Z,10.23
2018-06-08T08:08:17.947Z,11.47
2018-06-08T08:10:30.356Z,12.90
2018-06-08T08:12:42.879Z,13.67
2018-06-08T08:14:55.173Z,15.10
2018-06-08T08:17:07.541Z,15.37
2018-06-08T08:19:19.843Z,14.93
2018-06-08T08:21:32.800Z,14.10
2018-06-08T08:23:45.867Z,14.63
2018-06-08T08:25:58.180Z,15.27
2018-06-08T08:28:10.626Z,15.23
2018-06-08T08:30:22.941Z,14.60
2018-06-08T08:32:35.532Z,15.50
2018-06-08T08:34:47.846Z,14.90
2018-06-08T08:37:00.216Z,14.33
2018-06-08T08:39:12.881Z,14.53
2018-06-08T08:41:25.166Z,15.50
2018-06-08T08:43:37.540Z,12.67
2018-06-08T08:45:49.863Z,12.70
2018-06-08T08:48:02.495Z,13.50
2018-06-08T08:50:14.977Z,12.23
2018-06-08T08:52:27.321Z,12.03
2018-06-08T08:54:39.665Z,12.77
2018-06-08T08:56:52.133Z,12.57
2018-06-08T08:59:05.213Z,12.80
2018-06-08T09:01:17.548Z,13.13
2018-06-08T09:03:29.897Z,10.77
2018-06-08T09:05:42.391Z,13.10
2018-06-08T09:07:54.718Z,13.93
2018-06-08T09:10:07.120Z,14.97
2018-06-08T09:12:19.450Z,11.53
2018-06-08T09:14:31.776Z,14.93
2018-06-08T09:16:44.086Z,14.40
2018-06-08T09:18:56.405Z,14.67
2018-06-08T09:21:08.835Z,13.57
2018-06-08T09:23:21.246Z,14.00
2018-06-08T09:25:33.613Z,15.13
2018-06-08T09:27:45.931Z,12.50
2018-06-08T09:29:58.271Z,12.43
2018-06-08T09:32:10.656Z,13.47
2018-06-08T09:34:23.017Z,15.97
2018-06-08T09:36:35.436Z,13.67
2018-06-08T09:38:47.759Z,13.73
2018-06-08T09:41:00.112Z,15.20
2018-06-08T09:43:12.560Z,13.23
2018-06-08T09:45:24.950Z,11.93
2018-06-08T09:47:37.314Z,11.87
2018-06-08T09:49:49.668Z,11.50
2018-06-08T09:52:01.974Z,12.13
2018-06-08T09:54:14.314Z,13.07
2018-06-08T09:56:26.694Z,12.47
2018-06-08T09:58:39.043Z,11.03
2018-06-08T10:00:51.397Z,11.20
2018-06-08T10:03:03.722Z,9.97
2018-06-08T10:05:16.060Z,11.30
2018-06-08T10:07:28.560Z,10.17
2018-06-08T10:09:40.982Z,11.60
2018-06-08T10:11:53.462Z,12.20
2018-06-08T10:14:05.827Z,11.53
2018-06-08T10:16:18.233Z,10.93
2018-06-08T10:18:30.634Z,10.87
2018-06-08T10:20:42.990Z,12.43
2018-06-08T10:22:55.425Z,10.60
2018-06-08T10:25:07.724Z,11.47
2018-06-08T10:27:20.031Z,10.73
2018-06-08T10:29:32.417Z,9.93
2018-06-08T10:31:44.736Z,9.17
2018-06-08T10:33:57.207Z,10.50
2018-06-08T10:36:09.568Z,8.77
2018-06-08T10:38:21.859Z,11.63
2018-06-08T10:40:34.192Z,9.70
2018-06-08T10:42:46.519Z,11.07
2018-06-08T10:44:58.828Z,9.60
2018-06-08T10:47:11.243Z,10.20
2018-06-08T10:49:23.635Z,9.20
2018-06-08T10:51:36.030Z,11.67
2018-06-08T10:53:48.404Z,10.43
2018-06-08T10:56:00.846Z,11.63
2018-06-08T10:58:13.294Z,9.03
2018-06-08T11:00:25.660Z,9.47
2018-06-08T11:02:38.070Z,9.43
2018-06-08T11:04:50.476Z,10.63
2018-06-08T11:07:03.018Z,8.83
2018-06-08T11:09:15.370Z,10.50
2018-06-08T11:11:27.996Z,9.00
2018-06-08T11:13:40.438Z,8.77
2018-06-08T11:15:52.835Z,10.23
2018-06-08T11:18:05.323Z,11.73
2018-06-08T11:20:17.684Z,11.40
2018-06-08T11:22:30.242Z,11.57
2018-06-08T11:24:42.643Z,9.20
2018-06-08T11:26:55.707Z,10.83
2018-06-08T11:29:08.069Z,13.00
2018-06-08T11:31:20.370Z,11.57
2018-06-08T11:33:32.735Z,12.47
2018-06-08T11:35:45.187Z,12.40
2018-06-08T11:37:57.610Z,12.07
2018-06-08T11:40:09.962Z,11.30
2018-06-08T11:42:22.384Z,10.97
2018-06-08T11:44:34.808Z,12.77
2018-06-08T11:46:47.161Z,13.17
2018-06-08T11:48:59.513Z,11.33
2018-06-08T11:51:11.841Z,11.03
2018-06-08T11:53:24.226Z,12.40
2018-06-08T11:55:36.617Z,12.53
2018-06-08T11:57:49.063Z,12.43
2018-06-08T12:00:01.499Z,11.23
2018-06-08T12:02:13.953Z,11.83
2018-06-08T12:04:26.253Z,10.40
2018-06-08T12:06:38.643Z,12.80
2018-06-08T12:08:51.161Z,11.60
2018-06-08T12:11:03.497Z,12.07
2018-06-08T12:13:15.848Z,13.57
2018-06-08T12:15:28.215Z,13.70
2018-06-08T12:17:40.503Z,13.43
2018-06-08T12:19:52.934Z,12.00
2018-06-08T12:22:05.270Z,12.37
2018-06-08T12:24:17.650Z,11.53
2018-06-08T12:26:30.072Z,10.60
2018-06-08T12:28:42.447Z,11.83
2018-06-08T12:30:54.843Z,12.47
2018-06-08T12:33:07.203Z,12.37
2018-06-08T12:35:19.646Z,12.97
2018-06-08T12:37:32.115Z,12.83
2018-06-08T12:39:44.532Z,13.00
2018-06-08T12:41:57.009Z,11.90
2018-06-08T12:44:09.433Z,11.57
2018-06-08T12:46:21.818Z,13.07
2018-06-08T12:48:34.333Z,14.90
2018-06-08T12:50:46.670Z,13.63
2018-06-08T12:52:59.028Z,12.70
2018-06-08T12:55:11.470Z,13.47
2018-06-08T12:57:23.898Z,12.10
2018-06-08T12:59:36.244Z,12.40
2018-06-08T13:01:48.582Z,12.37
2018-06-08T13:04:01.160Z,12.33
2018-06-08T13:06:13.591Z,13.70
2018-06-08T13:08:26.071Z,12.23
2018-06-08T13:10:38.467Z,10.70
2018-06-08T13:12:50.830Z,10.30
2018-06-08T13:15:03.547Z,11.80
2018-06-08T13:17:15.916Z,9.83
2018-06-08T13:19:28.309Z,9.93
2018-06-08T13:21:40.732Z,10.43
2018-06-08T13:23:53.123Z,10.63
2018-06-08T13:26:05.605Z,10.30
2018-06-08T13:28:18.010Z,11.13
2018-06-08T13:30:30.405Z,10.23
2018-06-08T13:32:42.888Z,10.37
2018-06-08T13:34:55.275Z,10.17
2018-06-08T13:37:07.964Z,10.30
2018-06-08T13:39:20.333Z,9.90
2018-06-08T13:41:32.660Z,10.43
2018-06-08T13:43:45.112Z,9.80
2018-06-08T13:45:57.522Z,9.70
2018-06-08T13:48:10.064Z,9.73
2018-06-08T13:50:22.434Z,9.03
2018-06-08T13:52:34.823Z,9.10
2018-06-08T13:54:47.265Z,8.83
2018-06-08T13:56:59.674Z,8.97
2018-06-08T13:59:12.239Z,9.87
2018-06-08T14:01:24.611Z,8.33
2018-06-08T14:03:37.046Z,8.53
2018-06-08T14:05:49.401Z,8.67
2018-06-08T14:08:01.905Z,8.53
2018-06-08T14:10:14.379Z,8.33
2018-06-08T14:12:26.810Z,8.70
2018-06-08T14:14:39.195Z,8.53
2018-06-08T14:16:51.618Z,8.70
2018-06-08T14:19:04.147Z,8.40
2018-06-08T14:21:16.646Z,8.73
2018-06-08T14:23:28.990Z,9.33
2018-06-08T14:25:41.439Z,9.20
2018-06-08T14:27:53.771Z,9.70
2018-06-08T14:30:06.291Z,9.27
2018-06-08T14:32:18.642Z,8.60
2018-06-08T14:34:31.079Z,8.47
2018-06-08T14:36:43.461Z,8.27
2018-06-08T14:38:55.903Z,7.70
2018-06-08T14:41:08.311Z,8.63
2018-06-08T14:43:20.817Z,8.67
2018-06-08T14:45:33.249Z,8.37
2018-06-08T14:47:45.755Z,6.97
2018-06-08T14:49:58.147Z,10.17
2018-06-08T14:52:10.541Z,10.60
2018-06-08T14:54:23.059Z,7.77
2018-06-08T14:56:35.621Z,9.07
2018-06-08T14:58:47.961Z,9.87
2018-06-08T15:01:00.417Z,10.40
2018-06-08T15:03:12.804Z,9.57
2018-06-08T15:05:25.169Z,8.97
2018-06-08T15:07:37.559Z,10.37
2018-06-08T15:09:49.955Z,10.70
2018-06-08T15:12:02.398Z,8.80
2018-06-08T15:14:14.845Z,9.40
2018-06-08T15:16:27.240Z,9.40
2018-06-08T15:18:39.668Z,10.53
2018-06-08T15:20:52.106Z,11.97
2018-06-08T15:23:04.712Z,9.23
2018-06-08T15:25:17.054Z,9.57
2018-06-08T15:27:29.486Z,12.30
2018-06-08T15:29:41.872Z,8.50
2018-06-08T15:31:54.260Z,11.50
2018-06-08T15:34:06.791Z,11.13
2018-06-08T15:36:19.138Z,10.67
2018-06-08T15:38:31.569Z,12.77
2018-06-08T15:40:43.986Z,11.50
2018-06-08T15:42:57.336Z,11.53
2018-06-08T15:45:09.714Z,12.20
2018-06-08T15:47:22.112Z,12.43
2018-06-08T15:49:34.615Z,10.27
2018-06-08T15:51:46.988Z,10.23
2018-06-08T15:53:59.325Z,10.33
2018-06-08T15:56:11.675Z,9.37
2018-06-08T15:58:24.123Z,10.13
2018-06-08T16:00:36.542Z,10.60
2018-06-08T16:02:48.946Z,10.37
2018-06-08T16:05:01.361Z,10.77
2018-06-08T16:07:13.734Z,9.17
2018-06-08T16:09:26.321Z,9.63
2018-06-08T16:11:38.670Z,9.43
2018-06-08T16:13:51.219Z,8.87
2018-06-08T16:16:03.623Z,11.30
2018-06-08T16:18:16.031Z,7.93
2018-06-08T16:20:28.547Z,11.00
2018-06-08T16:22:41.093Z,8.87
2018-06-08T16:24:53.543Z,10.90
2018-06-08T16:27:05.902Z,11.27
2018-06-08T16:29:18.255Z,7.27
2018-06-08T16:31:30.787Z,5.27
2018-06-08T16:33:43.162Z,5.27
2018-06-08T16:35:55.542Z,4.73
2018-06-08T16:38:08.008Z,5.00
2018-06-08T16:40:20.368Z,4.50
2018-06-08T16:42:32.830Z,4.90
2018-06-08T16:44:45.230Z,5.63
2018-06-08T16:46:57.612Z,8.33
2018-06-08T16:49:10.017Z,6.67
2018-06-08T16:51:22.566Z,9.23
2018-06-08T16:53:34.950Z,6.23
2018-06-08T16:55:47.354Z,6.80
2018-06-08T16:57:59.831Z,9.30
2018-06-08T17:00:12.345Z,10.00
2018-06-08T17:02:24.791Z,11.27
2018-06-08T17:04:37.234Z,9.77
2018-06-08T17:06:49.663Z,13.27
2018-06-08T17:09:02.134Z,13.67
2018-06-08T17:11:14.474Z,11.87
2018-06-08T17:13:26.933Z,11.00
2018-06-08T17:15:39.343Z,9.43
2018-06-08T17:17:51.715Z,10.00
2018-06-08T17:20:04.149Z,10.37
2018-06-08T17:22:16.562Z,11.53
2018-06-08T17:24:28.955Z,10.57
2018-06-08T17:26:41.526Z,10.20
2018-06-08T17:28:54.105Z,13.10
2018-06-08T17:31:06.526Z,12.17
2018-06-08T17:33:18.997Z,9.77
2018-06-08T17:35:31.507Z,12.50
2018-06-08T17:37:43.858Z,13.10
2018-06-08T17:39:56.284Z,14.50
2018-06-08T17:42:08.675Z,13.37
2018-06-08T17:44:21.189Z,14.27
2018-06-08T17:46:33.622Z,14.20
2018-06-08T17:48:46.609Z,14.80
2018-06-08T17:50:58.989Z,14.07
2018-06-08T17:53:12.574Z,11.33
2018-06-08T17:55:24.967Z,12.43
2018-06-08T17:57:39.964Z,13.70
2018-06-08T17:59:52.466Z,15.10
2018-06-08T18:02:05.100Z,14.03
2018-06-08T18:04:17.466Z,15.67
2018-06-08T18:06:29.864Z,15.00
2018-06-08T18:08:42.284Z,15.30
2018-06-08T18:10:58.253Z,19.57
2018-06-08T18:13:11.325Z,13.70
2018-06-08T18:15:23.696Z,13.90
2018-06-08T18:17:36.150Z,14.30
2018-06-08T18:19:48.499Z,15.70
2018-06-08T18:22:00.912Z,15.80
2018-06-08T18:24:13.328Z,15.53
2018-06-08T18:26:25.787Z,15.40
2018-06-08T18:28:38.218Z,14.97
2018-06-08T18:30:50.616Z,12.97
2018-06-08T18:33:03.063Z,16.47
2018-06-08T18:35:15.483Z,16.67
2018-06-08T18:37:27.997Z,18.57
2018-06-08T18:39:40.399Z,18.83
2018-06-08T18:41:52.767Z,15.20
2018-06-08T18:44:05.251Z,16.60
2018-06-08T18:46:17.642Z,17.33
2018-06-08T18:48:30.094Z,18.27
2018-06-08T18:50:42.442Z,18.20
2018-06-08T18:52:54.850Z,17.73
2018-06-08T18:55:07.372Z,17.20
2018-06-08T18:57:19.746Z,16.47
2018-06-08T18:59:32.189Z,17.20
2018-06-08T19:01:44.507Z,16.87
2018-06-08T19:03:57.029Z,18.80
2018-06-08T19:06:09.393Z,18.30
2018-06-08T19:08:21.858Z,17.80
2018-06-08T19:10:34.318Z,15.87
2018-06-08T19:12:46.765Z,16.60
2018-06-08T19:14:59.278Z,13.00
2018-06-08T19:17:11.708Z,17.37
2018-06-08T19:19:24.078Z,17.27
2018-06-08T19:21:36.544Z,16.77
2018-06-08T19:23:49.003Z,16.50
2018-06-08T19:26:01.575Z,18.00
2018-06-08T19:28:13.952Z,18.27
2018-06-08T19:30:26.394Z,17.87
2018-06-08T19:32:38.782Z,15.90
2018-06-08T19:34:51.164Z,16.90
2018-06-08T19:37:03.579Z,15.30
2018-06-08T19:39:15.985Z,13.23
2018-06-08T19:41:28.414Z,15.50
2018-06-08T19:43:40.768Z,16.20
2018-06-08T19:45:53.208Z,16.80
2018-06-08T19:48:05.740Z,15.97
2018-06-08T19:50:18.087Z,13.60
2018-06-08T19:52:30.478Z,18.83
2018-06-08T19:54:42.827Z,17.67
2018-06-08T19:56:55.255Z,17.37
2018-06-08T19:59:07.680Z,19.57
2018-06-08T20:01:20.073Z,19.23
2018-06-08T20:03:33.020Z,19.07
2018-06-08T20:05:45.392Z,18.57
2018-06-08T20:07:57.788Z,18.23
2018-06-08T20:10:10.134Z,16.90
2018-06-08T20:12:22.526Z,12.70
2018-06-08T20:14:34.931Z,15.43
2018-06-08T20:16:47.359Z,12.10
2018-06-08T20:18:59.811Z,18.47
2018-06-08T20:21:12.209Z,19.93
2018-06-08T20:23:24.672Z,16.03
2018-06-08T20:25:37.084Z,15.87
2018-06-08T20:27:49.490Z,13.57
2018-06-08T20:30:01.956Z,15.87
2018-06-08T20:32:14.538Z,18.13
2018-06-08T20:34:26.971Z,21.20
2018-06-08T20:36:39.351Z,15.50
2018-06-08T20:38:51.714Z,18.07
2018-06-08T20:41:04.142Z,12.37
2018-06-08T20:43:16.494Z,18.40
2018-06-08T20:45:28.943Z,20.50
2018-06-08T20:47:41.329Z,20.13
2018-06-08T20:49:53.714Z,18.50
2018-06-08T20:52:06.233Z,17.83
2018-06-08T20:54:18.659Z,14.90
2018-06-08T20:56:31.032Z,16.60
2018-06-08T20:58:43.466Z,18.60
2018-06-08T21:00:56.551Z,12.33
2018-06-08T21:03:08.978Z,18.40
2018-06-08T21:05:21.454Z,18.37
2018-06-08T21:07:33.780Z,19.53
2018-06-08T21:09:46.266Z,21.27
2018-06-08T21:11:58.691Z,18.43
2018-06-08T21:14:11.054Z,18.37
2018-06-08T21:16:23.627Z,19.53
2018-06-08T21:18:36.017Z,16.53
2018-06-08T21:20:48.425Z,16.70
2018-06-08T21:23:00.760Z,19.90
2018-06-08T21:25:13.213Z,19.90
2018-06-08T21:27:25.711Z,16.57
2018-06-08T21:29:38.118Z,14.60
2018-06-08T21:31:50.562Z,19.00
2018-06-08T21:34:02.895Z,19.83
2018-06-08T21:36:15.323Z,19.73
2018-06-08T21:38:27.708Z,21.27
2018-06-08T21:40:40.207Z,21.43
2018-06-08T21:42:52.627Z,22.97
2018-06-08T21:45:05.139Z,21.80
2018-06-08T21:47:17.694Z,21.47
2018-06-08T21:49:30.079Z,21.33
2018-06-08T21:51:42.538Z,19.63
2018-06-08T21:53:54.935Z,20.10
2018-06-08T21:56:07.373Z,22.40
2018-06-08T21:58:19.829Z,21.47
2018-06-08T22:00:32.257Z,20.37
2018-06-08T22:02:44.667Z,21.20
2018-06-08T22:04:57.081Z,21.67
2018-06-08T22:07:09.486Z,15.90
2018-06-08T22:09:21.991Z,21.40
2018-06-08T22:11:34.413Z,21.30
2018-06-08T22:13:46.875Z,21.73
2018-06-08T22:15:59.283Z,22.47
2018-06-08T22:18:11.756Z,22.67
2018-06-08T22:20:24.146Z,22.47
2018-06-08T22:22:36.638Z,20.07
2018-06-08T22:24:49.015Z,22.90
2018-06-08T22:27:01.417Z,22.60
2018-06-08T22:29:13.891Z,22.10
2018-06-08T22:31:26.265Z,23.03
2018-06-08T22:33:38.606Z,22.57
2018-06-08T22:35:51.039Z,19.13
2018-06-08T22:38:03.462Z,24.20
2018-06-08T22:40:15.854Z,23.73
2018-06-08T22:42:28.226Z,22.43
2018-06-08T22:44:40.613Z,22.87
2018-06-08T22:46:52.962Z,23.03
2018-06-08T22:49:05.385Z,23.57
2018-06-08T22:51:17.853Z,23.27
2018-06-08T22:53:30.266Z,24.50
2018-06-08T22:55:42.661Z,24.53
2018-06-08T22:57:55.070Z,21.87
2018-06-08T23:00:07.779Z,22.80
2018-06-08T23:02:20.189Z,25.43
2018-06-08T23:04:32.544Z,20.57
2018-06-08T23:06:44.959Z,23.53
2018-06-08T23:08:57.350Z,26.80
2018-06-08T23:11:09.730Z,23.50
2018-06-08T23:13:22.118Z,23.50
2018-06-08T23:15:34.469Z,25.23
2018-06-08T23:17:46.879Z,23.90
2018-06-08T23:19:59.190Z,20.43
2018-06-08T23:22:11.544Z,22.87
2018-06-08T23:24:24.654Z,21.90
2018-06-08T23:26:37.058Z,19.93
2018-06-08T23:28:49.518Z,22.57
2018-06-08T23:31:01.985Z,23.37
2018-06-08T23:33:14.402Z,22.03
2018-06-08T23:35:26.826Z,21.13
2018-06-08T23:37:39.163Z,20.40
2018-06-08T23:39:51.531Z,21.47
2018-06-08T23:42:03.915Z,23.13
2018-06-08T23:44:16.509Z,21.63
2018-06-08T23:46:28.912Z,22.17
2018-06-08T23:48:41.383Z,22.53
2018-06-08T23:50:53.748Z,22.73
2018-06-08T23:53:06.134Z,16.83
2018-06-08T23:55:18.570Z,22.40
2018-06-08T23:57:30.958Z,22.87
2018-06-08T23:59:43.369Z,23.10
